sensor_id;sensor_type;location;lat;lon;timestamp;pressure;altitude;pressure_sealevel;temperature;humidity
73860;BME280;62197;51.632;13.700;2022-12-05T00:01:50;100393.44;;;2.54;100.00
73860;BME280;62197;51.632;13.700;2022-12-05T00:04:15;100390.34;;;2.57;100.00
73860;BME280;62197;51.632;13.700;2022-12-05T00:06:41;100397.00;;;2.69;100.00
73860;BME280;62197;51.632;13.700;2022-12-05T00:09:07;100391.41;;;2.77;100.00
73860;BME280;62197;51.632;13.700;2022-12-05T00:11:34;100396.94;;;2.84;100.00
73860;BME280;62197;51.632;13.700;2022-12-05T00:14:00;100397.50;;;2.79;100.00
73860;BME280;62197;51.632;13.700;2022-12-05T00:16:29;100397.50;;;2.79;100.00
73860;BME280;62197;51.632;13.700;2022-12-05T00:18:55;100404.22;;;2.62;100.00
73860;BME280;62197;51.632;13.700;2022-12-05T00:21:24;100384.91;;;2.57;100.00
73860;BME280;62197;51.632;13.700;2022-12-05T00:23:51;100397.38;;;2.66;100.00
73860;BME280;62197;51.632;13.700;2022-12-05T00:26:17;100393.13;;;2.63;100.00
73860;BME280;62197;51.632;13.700;2022-12-05T00:28:42;100400.41;;;2.56;100.00
73860;BME280;62197;51.632;13.700;2022-12-05T00:31:11;100398.59;;;2.63;100.00
73860;BME280;62197;51.632;13.700;2022-12-05T00:33:37;100391.06;;;2.65;100.00
73860;BME280;62197;51.632;13.700;2022-12-05T00:36:08;100396.59;;;2.72;100.00
73860;BME280;62197;51.632;13.700;2022-12-05T00:38:34;100399.66;;;2.84;100.00
73860;BME280;62197;51.632;13.700;2022-12-05T00:41:10;100398.28;;;2.73;100.00
73860;BME280;62197;51.632;13.700;2022-12-05T00:43:36;100393.22;;;2.70;100.00
73860;BME280;62197;51.632;13.700;2022-12-05T00:46:03;100388.50;;;2.57;100.00
73860;BME280;62197;51.632;13.700;2022-12-05T00:48:29;100389.97;;;2.60;100.00
73860;BME280;62197;51.632;13.700;2022-12-05T00:51:07;100397.28;;;2.59;100.00
73860;BME280;62197;51.632;13.700;2022-12-05T00:53:33;100392.78;;;2.52;100.00
73860;BME280;62197;51.632;13.700;2022-12-05T00:56:02;100398.59;;;2.63;100.00
73860;BME280;62197;51.632;13.700;2022-12-05T00:58:28;100388.53;;;2.64;100.00
73860;BME280;62197;51.632;13.700;2022-12-05T01:00:53;100381.69;;;2.68;100.00
73860;BME280;62197;51.632;13.700;2022-12-05T01:03:19;100392.81;;;2.73;100.00
73860;BME280;62197;51.632;13.700;2022-12-05T01:05:44;100385.63;;;2.65;100.00
73860;BME280;62197;51.632;13.700;2022-12-05T01:08:09;100387.44;;;2.58;100.00
73860;BME280;62197;51.632;13.700;2022-12-05T01:10:35;100395.84;;;2.78;100.00
73860;BME280;62197;51.632;13.700;2022-12-05T01:13:00;100387.09;;;2.83;100.00
73860;BME280;62197;51.632;13.700;2022-12-05T01:15:25;100397.13;;;2.82;100.00
73860;BME280;62197;51.632;13.700;2022-12-05T01:17:51;100385.47;;;2.88;100.00
73860;BME280;62197;51.632;13.700;2022-12-05T01:20:16;100388.63;;;2.70;100.00
73860;BME280;62197;51.632;13.700;2022-12-05T01:22:42;100386.72;;;2.71;100.00
73860;BME280;62197;51.632;13.700;2022-12-05T01:25:07;100392.44;;;2.76;100.00
73860;BME280;62197;51.632;13.700;2022-12-05T01:27:33;100379.34;;;2.65;100.00
73860;BME280;62197;51.632;13.700;2022-12-05T01:29:58;100386.72;;;2.71;100.00
73860;BME280;62197;51.632;13.700;2022-12-05T01:32:23;100378.44;;;2.79;100.00
73860;BME280;62197;51.632;13.700;2022-12-05T01:34:49;100379.47;;;2.78;100.00
73860;BME280;62197;51.632;13.700;2022-12-05T01:37:14;100389.31;;;2.79;100.00
73860;BME280;62197;51.632;13.700;2022-12-05T01:39:39;100387.97;;;2.68;100.00
73860;BME280;62197;51.632;13.700;2022-12-05T01:42:05;100392.16;;;2.71;100.00
73860;BME280;62197;51.632;13.700;2022-12-05T01:46:55;100384.16;;;2.84;100.00
73860;BME280;62197;51.632;13.700;2022-12-05T01:49:24;100382.31;;;2.70;100.00
73860;BME280;62197;51.632;13.700;2022-12-05T01:51:54;100379.19;;;2.73;100.00
73860;BME280;62197;51.632;13.700;2022-12-05T01:54:21;100375.34;;;2.82;100.00
73860;BME280;62197;51.632;13.700;2022-12-05T01:56:49;100371.56;;;2.83;100.00
73860;BME280;62197;51.632;13.700;2022-12-05T01:59:17;100373.25;;;2.84;100.00
73860;BME280;62197;51.632;13.700;2022-12-05T02:01:44;100373.50;;;2.68;100.00
73860;BME280;62197;51.632;13.700;2022-12-05T02:04:09;100372.97;;;2.79;100.00
73860;BME280;62197;51.632;13.700;2022-12-05T02:06:35;100366.97;;;2.84;100.00
73860;BME280;62197;51.632;13.700;2022-12-05T02:09:00;100372.81;;;2.81;100.00
73860;BME280;62197;51.632;13.700;2022-12-05T02:11:27;100376.47;;;2.73;100.00
73860;BME280;62197;51.632;13.700;2022-12-05T02:17:13;100373.25;;;2.84;100.00
73860;BME280;62197;51.632;13.700;2022-12-05T02:20:48;100383.19;;;2.70;100.00
73860;BME280;62197;51.632;13.700;2022-12-05T02:23:26;100382.84;;;2.80;100.00
73860;BME280;62197;51.632;13.700;2022-12-05T02:26:16;100389.75;;;2.61;100.00
73860;BME280;62197;51.632;13.700;2022-12-05T02:34:36;100393.13;;;2.63;100.00
73860;BME280;62197;51.632;13.700;2022-12-05T02:37:15;100381.09;;;2.72;100.00
73860;BME280;62197;51.632;13.700;2022-12-05T02:39:53;100389.53;;;2.78;100.00
73860;BME280;62197;51.632;13.700;2022-12-05T02:42:31;100378.31;;;2.87;100.00
73860;BME280;62197;51.632;13.700;2022-12-05T02:45:02;100376.63;;;2.86;100.00
73860;BME280;62197;51.632;13.700;2022-12-05T02:47:33;100380.59;;;2.84;100.00
73860;BME280;62197;51.632;13.700;2022-12-05T02:50:01;100367.59;;;2.86;100.00
73860;BME280;62197;51.632;13.700;2022-12-05T02:52:29;100371.56;;;2.83;100.00
73860;BME280;62197;51.632;13.700;2022-12-05T02:54:54;100353.91;;;2.79;100.00
73860;BME280;62197;51.632;13.700;2022-12-05T02:57:21;100375.22;;;2.90;100.00
73860;BME280;62197;51.632;13.700;2022-12-05T02:59:48;100368.72;;;2.91;100.00
73860;BME280;62197;51.632;13.700;2022-12-05T03:02:29;100370.78;;;2.89;100.00
73860;BME280;62197;51.632;13.700;2022-12-05T03:05:00;100369.69;;;2.84;100.00
73860;BME280;62197;51.632;13.700;2022-12-05T03:07:30;100373.63;;;2.81;100.00
73860;BME280;62197;51.632;13.700;2022-12-05T03:09:59;100358.13;;;2.82;100.00
73860;BME280;62197;51.632;13.700;2022-12-05T03:12:28;100374.06;;;2.85;100.00
73860;BME280;62197;51.632;13.700;2022-12-05T03:15:16;100365.22;;;2.76;100.00
73860;BME280;62197;51.632;13.700;2022-12-05T03:17:53;100374.03;;;2.78;100.00
73860;BME280;62197;51.632;13.700;2022-12-05T03:20:31;100372.72;;;2.74;100.00
73860;BME280;62197;51.632;13.700;2022-12-05T03:23:02;100372.72;;;2.74;100.00
73860;BME280;62197;51.632;13.700;2022-12-05T03:25:38;100372.97;;;2.79;100.00
73860;BME280;62197;51.632;13.700;2022-12-05T03:28:15;100370.25;;;2.79;100.00
73860;BME280;62197;51.632;13.700;2022-12-05T03:30:46;100375.34;;;2.82;100.00
73860;BME280;62197;51.632;13.700;2022-12-05T03:33:17;100377.41;;;2.80;100.00
73860;BME280;62197;51.632;13.700;2022-12-05T03:38:30;100384.28;;;2.97;100.00
73860;BME280;62197;51.632;13.700;2022-12-05T03:41:23;100377.72;;;2.92;100.00
73860;BME280;62197;51.632;13.700;2022-12-05T03:43:51;100391.81;;;2.95;100.00
73860;BME280;62197;51.632;13.700;2022-12-05T03:46:59;100389.66;;;2.91;100.00
73860;BME280;62197;51.632;13.700;2022-12-05T03:49:26;100384.16;;;2.84;100.00
73860;BME280;62197;51.632;13.700;2022-12-05T03:52:04;100390.19;;;2.80;100.00
73860;BME280;62197;51.632;13.700;2022-12-05T03:54:35;100377.31;;;2.73;100.00
73860;BME280;62197;51.632;13.700;2022-12-05T03:57:24;100389.63;;;2.84;100.00
73860;BME280;62197;51.632;13.700;2022-12-05T04:00:16;100384.63;;;2.88;100.00
73860;BME280;62197;51.632;13.700;2022-12-05T04:08:46;100379.72;;;3.04;100.00
73860;BME280;62197;51.632;13.700;2022-12-05T04:11:18;100374.28;;;3.04;100.00
73860;BME280;62197;51.632;13.700;2022-12-05T04:13:58;100381.31;;;2.92;100.00
73860;BME280;62197;51.632;13.700;2022-12-05T04:16:29;100387.22;;;2.96;100.00
73860;BME280;62197;51.632;13.700;2022-12-05T04:19:33;100387.66;;;2.99;100.00
73860;BME280;62197;51.632;13.700;2022-12-05T04:22:20;100386.25;;;3.03;100.00
73860;BME280;62197;51.632;13.700;2022-12-05T04:24:47;100386.03;;;3.05;100.00
73860;BME280;62197;51.632;13.700;2022-12-05T04:27:58;100383.97;;;3.07;100.00
73860;BME280;62197;51.632;13.700;2022-12-05T04:33:15;100396.56;;;3.08;100.00
73860;BME280;62197;51.632;13.700;2022-12-05T04:35:54;100391.69;;;3.24;100.00
73860;BME280;62197;51.632;13.700;2022-12-05T04:38:36;100383.72;;;3.29;100.00
73860;BME280;62197;51.632;13.700;2022-12-05T04:41:06;100389.19;;;3.29;100.00
73860;BME280;62197;51.632;13.700;2022-12-05T04:43:38;100394.16;;;3.19;100.00
73860;BME280;62197;51.632;13.700;2022-12-05T04:46:08;100385.25;;;3.11;100.00
73860;BME280;62197;51.632;13.700;2022-12-05T04:48:37;100390.78;;;3.17;100.00
73860;BME280;62197;51.632;13.700;2022-12-05T04:51:06;100391.69;;;3.24;100.00
73860;BME280;62197;51.632;13.700;2022-12-05T04:53:33;100393.75;;;3.22;100.00
73860;BME280;62197;51.632;13.700;2022-12-05T04:55:58;100392.53;;;3.25;100.00
73860;BME280;62197;51.632;13.700;2022-12-05T04:58:26;100382.78;;;3.16;100.00
73860;BME280;62197;51.632;13.700;2022-12-05T05:01:04;100404.78;;;3.14;100.00
73860;BME280;62197;51.632;13.700;2022-12-05T05:03:41;100388.22;;;3.16;100.00
73860;BME280;62197;51.632;13.700;2022-12-05T05:06:10;100399.84;;;3.24;100.00
73860;BME280;62197;51.632;13.700;2022-12-05T05:08:36;100403.03;;;3.28;100.00
73860;BME280;62197;51.632;13.700;2022-12-05T05:11:34;100395.19;;;3.18;100.00
73860;BME280;62197;51.632;13.700;2022-12-05T05:14:01;100391.16;;;3.14;100.00
73860;BME280;62197;51.632;13.700;2022-12-05T05:16:27;100398.31;;;3.15;100.00
73860;BME280;62197;51.632;13.700;2022-12-05T05:18:53;100394.81;;;3.21;100.00
73860;BME280;62197;51.632;13.700;2022-12-05T05:21:20;100399.63;;;3.19;100.00
73860;BME280;62197;51.632;13.700;2022-12-05T05:23:45;100394.28;;;3.11;100.00
73860;BME280;62197;51.632;13.700;2022-12-05T05:26:11;100389.97;;;3.02;100.00
73860;BME280;62197;51.632;13.700;2022-12-05T05:28:36;100392.59;;;3.10;100.00
73860;BME280;62197;51.632;13.700;2022-12-05T05:31:02;100393.22;;;3.12;100.00
73860;BME280;62197;51.632;13.700;2022-12-05T05:33:28;100402.47;;;3.11;100.00
73860;BME280;62197;51.632;13.700;2022-12-05T05:35:53;100400.38;;;3.13;100.00
73860;BME280;62197;51.632;13.700;2022-12-05T05:38:21;100398.69;;;3.12;100.00
73860;BME280;62197;51.632;13.700;2022-12-05T05:40:47;100398.88;;;3.11;100.00
73860;BME280;62197;51.632;13.700;2022-12-05T05:43:12;100404.53;;;3.09;100.00
73860;BME280;62197;51.632;13.700;2022-12-05T05:45:37;100399.59;;;2.98;100.00
73860;BME280;62197;51.632;13.700;2022-12-05T05:48:03;100404.91;;;3.06;100.00
73860;BME280;62197;51.632;13.700;2022-12-05T05:50:28;100400.25;;;3.00;100.00
73860;BME280;62197;51.632;13.700;2022-12-05T05:52:54;100404.53;;;3.09;100.00
73860;BME280;62197;51.632;13.700;2022-12-05T05:55:19;100395.72;;;3.07;100.00
73860;BME280;62197;51.632;13.700;2022-12-05T05:57:45;100399.88;;;3.03;100.00
73860;BME280;62197;51.632;13.700;2022-12-05T06:00:10;100403.25;;;3.05;100.00
73860;BME280;62197;51.632;13.700;2022-12-05T06:02:36;100404.53;;;3.09;100.00
73860;BME280;62197;51.632;13.700;2022-12-05T06:05:02;100407.50;;;3.14;100.00
73860;BME280;62197;51.632;13.700;2022-12-05T06:07:28;100404.78;;;3.14;100.00
73860;BME280;62197;51.632;13.700;2022-12-05T06:09:53;100407.16;;;3.17;100.00
73860;BME280;62197;51.632;13.700;2022-12-05T06:12:19;100406.22;;;3.10;100.00
73860;BME280;62197;51.632;13.700;2022-12-05T06:14:46;100408.94;;;3.10;100.00
73860;BME280;62197;51.632;13.700;2022-12-05T06:17:12;100418.09;;;3.24;100.00
73860;BME280;62197;51.632;13.700;2022-12-05T06:19:38;100397.00;;;3.11;100.00
73860;BME280;62197;51.632;13.700;2022-12-05T06:22:03;100415.56;;;3.22;100.00
73860;BME280;62197;51.632;13.700;2022-12-05T06:24:28;100407.78;;;3.19;100.00
73860;BME280;62197;51.632;13.700;2022-12-05T06:26:54;100408.81;;;3.18;100.00
73860;BME280;62197;51.632;13.700;2022-12-05T06:29:19;100419.38;;;3.28;100.00
73860;BME280;62197;51.632;13.700;2022-12-05T06:31:44;100415.97;;;3.19;100.00
73860;BME280;62197;51.632;13.700;2022-12-05T06:34:10;100418.41;;;3.14;100.00
73860;BME280;62197;51.632;13.700;2022-12-05T06:36:35;100421.44;;;3.19;100.00
73860;BME280;62197;51.632;13.700;2022-12-05T06:39:00;100430.75;;;3.31;100.00
73860;BME280;62197;51.632;13.700;2022-12-05T06:41:26;100430.75;;;3.31;100.00
73860;BME280;62197;51.632;13.700;2022-12-05T06:43:56;100424.63;;;3.29;100.00
73860;BME280;62197;51.632;13.700;2022-12-05T06:46:22;100426.72;;;3.27;100.00
73860;BME280;62197;51.632;13.700;2022-12-05T06:48:51;100431.03;;;3.15;100.00
73860;BME280;62197;51.632;13.700;2022-12-05T06:51:17;100431.41;;;3.12;100.00
73860;BME280;62197;51.632;13.700;2022-12-05T06:53:43;100432.38;;;3.26;100.00
73860;BME280;62197;51.632;13.700;2022-12-05T06:56:11;100439.88;;;3.17;100.00
73860;BME280;62197;51.632;13.700;2022-12-05T06:58:38;100432.72;;;3.16;100.00
73860;BME280;62197;51.632;13.700;2022-12-05T07:01:03;100439.47;;;3.20;100.00
73860;BME280;62197;51.632;13.700;2022-12-05T07:03:48;100441.53;;;3.18;100.00
73860;BME280;62197;51.632;13.700;2022-12-05T07:06:13;100456.53;;;3.08;100.00
73860;BME280;62197;51.632;13.700;2022-12-05T07:08:39;100451.53;;;3.11;100.00
73860;BME280;62197;51.632;13.700;2022-12-05T07:11:05;100447.72;;;3.06;100.00
73860;BME280;62197;51.632;13.700;2022-12-05T07:13:31;100460.75;;;3.10;100.00
73860;BME280;62197;51.632;13.700;2022-12-05T07:15:57;100446.09;;;3.11;100.00
73860;BME280;62197;51.632;13.700;2022-12-05T07:18:25;100455.28;;;3.10;100.00
73860;BME280;62197;51.632;13.700;2022-12-05T07:20:59;100462.97;;;3.21;100.00
73860;BME280;62197;51.632;13.700;2022-12-05T07:23:25;100458.75;;;3.19;100.00
73860;BME280;62197;51.632;13.700;2022-12-05T07:25:50;100468.44;;;3.21;100.00
73860;BME280;62197;51.632;13.700;2022-12-05T07:28:15;100470.97;;;3.23;100.00
73860;BME280;62197;51.632;13.700;2022-12-05T07:30:41;100464.66;;;3.22;100.00
73860;BME280;62197;51.632;13.700;2022-12-05T07:33:06;100464.66;;;3.22;100.00
73860;BME280;62197;51.632;13.700;2022-12-05T07:35:31;100470.97;;;3.23;100.00
73860;BME280;62197;51.632;13.700;2022-12-05T07:37:57;100463.03;;;3.28;100.00
73860;BME280;62197;51.632;13.700;2022-12-05T07:40:22;100472.06;;;3.28;100.00
73860;BME280;62197;51.632;13.700;2022-12-05T07:42:48;100466.19;;;3.31;100.00
73860;BME280;62197;51.632;13.700;2022-12-05T07:45:13;100470.63;;;3.32;100.00
73860;BME280;62197;51.632;13.700;2022-12-05T07:47:39;100474.00;;;3.34;100.00
73860;BME280;62197;51.632;13.700;2022-12-05T07:50:04;100470.22;;;3.35;100.00
73860;BME280;62197;51.632;13.700;2022-12-05T07:52:30;100456.59;;;3.35;100.00
73860;BME280;62197;51.632;13.700;2022-12-05T07:54:55;100464.06;;;3.48;100.00
73860;BME280;62197;51.632;13.700;2022-12-05T07:57:21;100459.16;;;4.20;100.00
73860;BME280;62197;51.632;13.700;2022-12-05T07:59:46;100468.22;;;6.52;100.00
73860;BME280;62197;51.632;13.700;2022-12-05T08:02:11;100467.38;;;7.02;99.13
73860;BME280;62197;51.632;13.700;2022-12-05T08:04:37;100464.81;;;7.07;100.00
73860;BME280;62197;51.632;13.700;2022-12-05T08:07:02;100457.25;;;7.34;97.30
73860;BME280;62197;51.632;13.700;2022-12-05T08:09:27;100454.09;;;6.99;98.51
73860;BME280;62197;51.632;13.700;2022-12-05T08:11:53;100450.75;;;7.84;97.58
73860;BME280;62197;51.632;13.700;2022-12-05T08:14:18;100457.16;;;6.78;87.31
73860;BME280;62197;51.632;13.700;2022-12-05T08:16:44;100465.22;;;7.49;100.00
73860;BME280;62197;51.632;13.700;2022-12-05T08:19:10;100468.84;;;6.54;89.56
73860;BME280;62197;51.632;13.700;2022-12-05T08:21:37;100462.22;;;6.81;97.99
73860;BME280;62197;51.632;13.700;2022-12-05T08:24:04;100462.72;;;7.72;89.20
73860;BME280;62197;51.632;13.700;2022-12-05T08:26:30;100464.38;;;7.73;95.30
73860;BME280;62197;51.632;13.700;2022-12-05T08:29:01;100482.97;;;7.46;94.14
73860;BME280;62197;51.632;13.700;2022-12-05T08:31:29;100484.34;;;8.11;90.71
73860;BME280;62197;51.632;13.700;2022-12-05T08:33:56;100485.53;;;8.21;89.47
73860;BME280;62197;51.632;13.700;2022-12-05T08:36:22;100480.56;;;8.55;88.19
73860;BME280;62197;51.632;13.700;2022-12-05T08:38:47;100485.03;;;7.19;89.46
73860;BME280;62197;51.632;13.700;2022-12-05T08:41:15;100484.50;;;7.36;91.44
73860;BME280;62197;51.632;13.700;2022-12-05T08:43:40;100487.22;;;7.04;86.38
73860;BME280;62197;51.632;13.700;2022-12-05T08:46:06;100499.47;;;6.12;94.10
73860;BME280;62197;51.632;13.700;2022-12-05T08:48:32;100501.38;;;5.85;96.64
73860;BME280;62197;51.632;13.700;2022-12-05T08:50:58;100503.19;;;6.63;92.68
73860;BME280;62197;51.632;13.700;2022-12-05T08:53:24;100499.13;;;6.79;89.88
73860;BME280;62197;51.632;13.700;2022-12-05T08:55:49;100494.50;;;6.79;93.25
73860;BME280;62197;51.632;13.700;2022-12-05T08:58:15;100500.00;;;6.79;88.79
73860;BME280;62197;51.632;13.700;2022-12-05T09:00:41;100494.81;;;7.02;89.38
73860;BME280;62197;51.632;13.700;2022-12-05T09:03:07;100508.69;;;7.83;85.70
73860;BME280;62197;51.632;13.700;2022-12-05T09:05:33;100494.44;;;7.92;86.45
73860;BME280;62197;51.632;13.700;2022-12-05T09:07:58;100500.16;;;8.40;82.55
73860;BME280;62197;51.632;13.700;2022-12-05T09:10:24;100505.81;;;7.71;83.38
73860;BME280;62197;51.632;13.700;2022-12-05T09:12:50;100503.19;;;7.83;85.96
73860;BME280;62197;51.632;13.700;2022-12-05T09:15:15;100508.81;;;7.94;83.97
73860;BME280;62197;51.632;13.700;2022-12-05T09:17:41;100509.47;;;7.90;84.76
73860;BME280;62197;51.632;13.700;2022-12-05T09:20:07;100506.97;;;7.19;86.08
73860;BME280;62197;51.632;13.700;2022-12-05T09:22:33;100510.25;;;7.41;87.60
73860;BME280;62197;51.632;13.700;2022-12-05T09:24:58;100515.94;;;7.71;85.25
73860;BME280;62197;51.632;13.700;2022-12-05T09:27:25;100517.63;;;7.41;85.75
73860;BME280;62197;51.632;13.700;2022-12-05T09:29:50;100499.88;;;6.99;89.22
73860;BME280;62197;51.632;13.700;2022-12-05T09:32:15;100500.78;;;7.30;85.20
73860;BME280;62197;51.632;13.700;2022-12-05T09:34:40;100510.84;;;7.05;87.94
73860;BME280;62197;51.632;13.700;2022-12-05T09:37:06;100502.63;;;6.99;86.43
73860;BME280;62197;51.632;13.700;2022-12-05T09:39:32;100513.94;;;6.58;92.71
73860;BME280;62197;51.632;13.700;2022-12-05T09:42:22;100506.97;;;7.19;89.47
73860;BME280;62197;51.632;13.700;2022-12-05T09:45:01;100510.34;;;6.71;91.25
73860;BME280;62197;51.632;13.700;2022-12-05T09:47:33;100509.72;;;7.19;87.36
73860;BME280;62197;51.632;13.700;2022-12-05T09:50:25;100506.81;;;7.46;86.30
73860;BME280;62197;51.632;13.700;2022-12-05T09:53:13;100508.34;;;6.97;88.59
73860;BME280;62197;51.632;13.700;2022-12-05T09:58:48;100518.41;;;7.85;85.01
73860;BME280;62197;51.632;13.700;2022-12-05T10:01:47;100509.41;;;7.72;86.16
73860;BME280;62197;51.632;13.700;2022-12-05T10:07:09;100504.31;;;7.44;86.88
73860;BME280;62197;51.632;13.700;2022-12-05T10:10:03;100511.59;;;7.88;85.81
73860;BME280;62197;51.632;13.700;2022-12-05T10:12:50;100507.44;;;7.48;86.68
73860;BME280;62197;51.632;13.700;2022-12-05T10:15:21;100506.03;;;7.39;85.58
73860;BME280;62197;51.632;13.700;2022-12-05T10:17:58;100507.69;;;7.77;85.63
73860;BME280;62197;51.632;13.700;2022-12-05T10:20:28;100498.47;;;7.90;85.13
73860;BME280;62197;51.632;13.700;2022-12-05T10:23:04;100504.81;;;7.66;85.05
73860;BME280;62197;51.632;13.700;2022-12-05T10:25:33;100498.50;;;7.27;87.10
73860;BME280;62197;51.632;13.700;2022-12-05T10:28:00;100507.97;;;7.32;88.64
73860;BME280;62197;51.632;13.700;2022-12-05T10:30:29;100509.63;;;7.39;88.41
73860;BME280;62197;51.632;13.700;2022-12-05T10:33:00;100504.84;;;7.59;86.06
73860;BME280;62197;51.632;13.700;2022-12-05T10:35:36;100505.84;;;7.65;86.14
73860;BME280;62197;51.632;13.700;2022-12-05T10:38:10;100500.84;;;8.11;84.91
73860;BME280;62197;51.632;13.700;2022-12-05T10:40:39;100502.91;;;7.91;84.73
73860;BME280;62197;51.632;13.700;2022-12-05T10:43:06;100511.41;;;7.89;86.39
73860;BME280;62197;51.632;13.700;2022-12-05T10:45:40;100510.28;;;7.97;85.39
73860;BME280;62197;51.632;13.700;2022-12-05T10:48:10;100504.16;;;7.95;84.30
73860;BME280;62197;51.632;13.700;2022-12-05T10:50:36;100518.56;;;8.15;84.33
73860;BME280;62197;51.632;13.700;2022-12-05T10:53:04;100513.91;;;7.91;85.47
73860;BME280;62197;51.632;13.700;2022-12-05T10:55:55;100518.34;;;7.61;85.95
73860;BME280;62197;51.632;13.700;2022-12-05T10:58:26;100515.34;;;8.25;85.52
73860;BME280;62197;51.632;13.700;2022-12-05T11:00:58;100508.38;;;7.35;86.85
73860;BME280;62197;51.632;13.700;2022-12-05T11:03:36;100509.56;;;7.08;90.58
73860;BME280;62197;51.632;13.700;2022-12-05T11:06:14;100513.06;;;7.59;87.98
73860;BME280;62197;51.632;13.700;2022-12-05T11:08:40;100503.16;;;7.89;87.37
73860;BME280;62197;51.632;13.700;2022-12-05T11:11:06;100511.50;;;7.45;87.50
73860;BME280;62197;51.632;13.700;2022-12-05T11:13:33;100508.28;;;7.10;88.41
73860;BME280;62197;51.632;13.700;2022-12-05T11:15:59;100497.75;;;7.01;89.91
73860;BME280;62197;51.632;13.700;2022-12-05T11:18:31;100506.75;;;7.27;90.18
73860;BME280;62197;51.632;13.700;2022-12-05T11:21:11;100506.50;;;6.85;90.76
73860;BME280;62197;51.632;13.700;2022-12-05T11:23:37;100504.31;;;7.06;92.66
73860;BME280;62197;51.632;13.700;2022-12-05T11:26:05;100493.72;;;8.03;86.57
73860;BME280;62197;51.632;13.700;2022-12-05T11:28:40;100491.75;;;7.86;86.76
73860;BME280;62197;51.632;13.700;2022-12-05T11:31:20;100492.56;;;7.93;86.40
73860;BME280;62197;51.632;13.700;2022-12-05T11:34:12;100488.31;;;8.15;85.11
73860;BME280;62197;51.632;13.700;2022-12-05T11:36:47;100490.22;;;7.65;86.00
73860;BME280;62197;51.632;13.700;2022-12-05T11:39:14;100490.81;;;7.43;87.87
73860;BME280;62197;51.632;13.700;2022-12-05T11:41:46;100498.97;;;6.67;91.39
73860;BME280;62197;51.632;13.700;2022-12-05T11:44:30;100489.06;;;6.60;91.76
73860;BME280;62197;51.632;13.700;2022-12-05T11:47:30;100490.00;;;5.95;94.80
73860;BME280;62197;51.632;13.700;2022-12-05T11:50:17;100501.31;;;5.53;97.97
73860;BME280;62197;51.632;13.700;2022-12-05T11:53:06;100495.34;;;5.23;100.00
73860;BME280;62197;51.632;13.700;2022-12-05T12:11:31;100485.94;;;4.78;100.00
73860;BME280;62197;51.632;13.700;2022-12-05T12:14:28;100472.25;;;4.78;100.00
73860;BME280;62197;51.632;13.700;2022-12-05T12:22:46;100476.72;;;4.79;100.00
73860;BME280;62197;51.632;13.700;2022-12-05T12:25:41;100475.00;;;4.78;100.00
73860;BME280;62197;51.632;13.700;2022-12-05T12:31:23;100484.31;;;4.84;100.00
73860;BME280;62197;51.632;13.700;2022-12-05T12:34:06;100487.22;;;4.82;100.00
73860;BME280;62197;51.632;13.700;2022-12-05T12:36:44;100475.84;;;4.79;100.00
73860;BME280;62197;51.632;13.700;2022-12-05T12:39:18;100474.41;;;4.83;100.00
73860;BME280;62197;51.632;13.700;2022-12-05T12:42:11;100476.50;;;4.81;100.00
73860;BME280;62197;51.632;13.700;2022-12-05T12:44:52;100480.88;;;4.75;100.00
73860;BME280;62197;51.632;13.700;2022-12-05T12:52:53;100476.72;;;4.79;100.00
73860;BME280;62197;51.632;13.700;2022-12-05T12:56:08;100461.94;;;4.67;100.00
73860;BME280;62197;51.632;13.700;2022-12-05T12:58:46;100469.09;;;4.68;100.00
73860;BME280;62197;51.632;13.700;2022-12-05T13:01:38;100472.47;;;4.70;100.00
73860;BME280;62197;51.632;13.700;2022-12-05T13:04:18;100470.75;;;4.69;100.00
73860;BME280;62197;51.632;13.700;2022-12-05T13:06:52;100467.00;;;4.70;100.00
73860;BME280;62197;51.632;13.700;2022-12-05T13:09:28;100467.22;;;4.75;100.00
73860;BME280;62197;51.632;13.700;2022-12-05T13:11:58;100473.75;;;4.74;100.00
73860;BME280;62197;51.632;13.700;2022-12-05T13:14:26;100474.13;;;4.71;100.00
73860;BME280;62197;51.632;13.700;2022-12-05T13:16:54;100473.75;;;4.74;100.00
73860;BME280;62197;51.632;13.700;2022-12-05T13:19:30;100478.38;;;4.80;100.00
73860;BME280;62197;51.632;13.700;2022-12-05T13:22:02;100475.88;;;4.85;100.00
73860;BME280;62197;51.632;13.700;2022-12-05T13:24:29;100468.72;;;4.78;100.00
73860;BME280;62197;51.632;13.700;2022-12-05T13:26:58;100477.13;;;4.76;100.00
73860;BME280;62197;51.632;13.700;2022-12-05T13:29:57;100470.13;;;4.67;100.00
73860;BME280;62197;51.632;13.700;2022-12-05T13:32:35;100474.09;;;4.65;100.00
73860;BME280;62197;51.632;13.700;2022-12-05T13:37:30;100472.63;;;4.62;100.00
73860;BME280;62197;51.632;13.700;2022-12-05T13:40:25;100483.78;;;4.67;100.00
73860;BME280;62197;51.632;13.700;2022-12-05T13:43:11;100482.13;;;4.66;100.00
73860;BME280;62197;51.632;13.700;2022-12-05T13:45:39;100477.28;;;4.68;100.00
73860;BME280;62197;51.632;13.700;2022-12-05T13:48:17;100476.00;;;4.64;100.00
73860;BME280;62197;51.632;13.700;2022-12-05T13:51:02;100490.97;;;4.68;100.00
73860;BME280;62197;51.632;13.700;2022-12-05T13:53:42;100482.50;;;4.63;100.00
73860;BME280;62197;51.632;13.700;2022-12-05T13:58:55;100479.56;;;4.58;100.00
73860;BME280;62197;51.632;13.700;2022-12-05T14:03:57;100471.75;;;4.55;100.00
73860;BME280;62197;51.632;13.700;2022-12-05T14:11:34;100470.22;;;4.46;100.00
73860;BME280;62197;51.632;13.700;2022-12-05T14:13:59;100479.50;;;4.51;100.00
73860;BME280;62197;51.632;13.700;2022-12-05T14:19:34;100480.22;;;4.67;100.00